sensor_id;sensor_type;location;lat;lon;timestamp;P1;durP1;ratioP1;P2;durP2;ratioP2
20870;SDS011;10595;51.218;3.452;2024-03-02T00:01:35;2.87;;;0.93;;
20870;SDS011;10595;51.218;3.452;2024-03-02T00:04:02;2.20;;;1.00;;
20870;SDS011;10595;51.218;3.452;2024-03-02T00:06:28;1.50;;;0.77;;
20870;SDS011;10595;51.218;3.452;2024-03-02T00:08:56;1.33;;;0.80;;
20870;SDS011;10595;51.218;3.452;2024-03-02T00:11:24;2.77;;;0.83;;
20870;SDS011;10595;51.218;3.452;2024-03-02T00:13:52;1.80;;;0.90;;
20870;SDS011;10595;51.218;3.452;2024-03-02T00:16:19;2.83;;;1.00;;
20870;SDS011;10595;51.218;3.452;2024-03-02T00:18:45;3.60;;;1.00;;
20870;SDS011;10595;51.218;3.452;2024-03-02T00:21:11;4.07;;;0.83;;
20870;SDS011;10595;51.218;3.452;2024-03-02T00:23:39;1.53;;;1.10;;
20870;SDS011;10595;51.218;3.452;2024-03-02T00:26:06;3.23;;;1.10;;
20870;SDS011;10595;51.218;3.452;2024-03-02T00:28:33;2.43;;;1.00;;
20870;SDS011;10595;51.218;3.452;2024-03-02T00:31:06;3.13;;;1.10;;
20870;SDS011;10595;51.218;3.452;2024-03-02T00:33:36;2.00;;;1.03;;
20870;SDS011;10595;51.218;3.452;2024-03-02T00:36:03;2.43;;;1.30;;
20870;SDS011;10595;51.218;3.452;2024-03-02T00:38:32;3.23;;;1.30;;
20870;SDS011;10595;51.218;3.452;2024-03-02T00:40:59;3.63;;;1.40;;
20870;SDS011;10595;51.218;3.452;2024-03-02T00:46:15;2.97;;;1.40;;
20870;SDS011;10595;51.218;3.452;2024-03-02T00:48:45;2.03;;;1.23;;
20870;SDS011;10595;51.218;3.452;2024-03-02T00:51:13;2.53;;;1.33;;
20870;SDS011;10595;51.218;3.452;2024-03-02T00:53:39;5.03;;;1.63;;
20870;SDS011;10595;51.218;3.452;2024-03-02T00:56:05;4.10;;;1.30;;
20870;SDS011;10595;51.218;3.452;2024-03-02T00:58:34;4.17;;;1.70;;
20870;SDS011;10595;51.218;3.452;2024-03-02T01:01:00;2.40;;;1.10;;
20870;SDS011;10595;51.218;3.452;2024-03-02T01:03:26;2.40;;;1.20;;
20870;SDS011;10595;51.218;3.452;2024-03-02T01:05:52;3.87;;;1.30;;
20870;SDS011;10595;51.218;3.452;2024-03-02T01:08:18;2.60;;;1.43;;
20870;SDS011;10595;51.218;3.452;2024-03-02T01:10:45;1.63;;;1.00;;
20870;SDS011;10595;51.218;3.452;2024-03-02T01:13:11;4.77;;;1.20;;
20870;SDS011;10595;51.218;3.452;2024-03-02T01:15:37;2.67;;;1.30;;
20870;SDS011;10595;51.218;3.452;2024-03-02T01:18:03;2.50;;;1.43;;
20870;SDS011;10595;51.218;3.452;2024-03-02T01:20:29;1.90;;;1.20;;
20870;SDS011;10595;51.218;3.452;2024-03-02T01:22:55;1.30;;;1.17;;
20870;SDS011;10595;51.218;3.452;2024-03-02T01:25:21;3.33;;;0.97;;
20870;SDS011;10595;51.218;3.452;2024-03-02T01:27:47;1.87;;;1.10;;
20870;SDS011;10595;51.218;3.452;2024-03-02T01:30:13;2.73;;;1.10;;
20870;SDS011;10595;51.218;3.452;2024-03-02T01:32:39;2.63;;;1.10;;
20870;SDS011;10595;51.218;3.452;2024-03-02T01:35:05;2.63;;;1.23;;
20870;SDS011;10595;51.218;3.452;2024-03-02T01:37:32;1.50;;;0.93;;
20870;SDS011;10595;51.218;3.452;2024-03-02T01:39:58;2.67;;;1.20;;
20870;SDS011;10595;51.218;3.452;2024-03-02T01:42:24;2.33;;;1.20;;
20870;SDS011;10595;51.218;3.452;2024-03-02T01:44:50;2.87;;;1.93;;
20870;SDS011;10595;51.218;3.452;2024-03-02T01:47:16;2.13;;;1.27;;
20870;SDS011;10595;51.218;3.452;2024-03-02T01:49:43;1.83;;;1.10;;
20870;SDS011;10595;51.218;3.452;2024-03-02T01:52:09;2.33;;;0.90;;
20870;SDS011;10595;51.218;3.452;2024-03-02T01:54:36;2.77;;;1.20;;
20870;SDS011;10595;51.218;3.452;2024-03-02T01:57:03;1.87;;;1.20;;
20870;SDS011;10595;51.218;3.452;2024-03-02T01:59:29;2.63;;;1.20;;
20870;SDS011;10595;51.218;3.452;2024-03-02T02:01:55;2.13;;;1.30;;
20870;SDS011;10595;51.218;3.452;2024-03-02T02:04:21;2.73;;;1.20;;
20870;SDS011;10595;51.218;3.452;2024-03-02T02:06:52;4.70;;;1.20;;
20870;SDS011;10595;51.218;3.452;2024-03-02T02:09:18;3.20;;;1.17;;
20870;SDS011;10595;51.218;3.452;2024-03-02T02:11:44;2.67;;;1.13;;
20870;SDS011;10595;51.218;3.452;2024-03-02T02:14:10;3.37;;;1.20;;
20870;SDS011;10595;51.218;3.452;2024-03-02T02:16:36;3.00;;;1.27;;
20870;SDS011;10595;51.218;3.452;2024-03-02T02:19:02;4.13;;;1.53;;
20870;SDS011;10595;51.218;3.452;2024-03-02T02:21:28;2.47;;;1.40;;
20870;SDS011;10595;51.218;3.452;2024-03-02T02:23:54;5.37;;;1.57;;
20870;SDS011;10595;51.218;3.452;2024-03-02T02:26:20;2.80;;;1.47;;
20870;SDS011;10595;51.218;3.452;2024-03-02T02:28:46;4.83;;;1.50;;
20870;SDS011;10595;51.218;3.452;2024-03-02T02:31:13;1.83;;;1.30;;
20870;SDS011;10595;51.218;3.452;2024-03-02T02:33:39;2.43;;;1.60;;
20870;SDS011;10595;51.218;3.452;2024-03-02T02:36:05;3.53;;;1.60;;
20870;SDS011;10595;51.218;3.452;2024-03-02T02:38:35;4.60;;;1.87;;
20870;SDS011;10595;51.218;3.452;2024-03-02T02:41:02;2.10;;;1.60;;
20870;SDS011;10595;51.218;3.452;2024-03-02T02:43:28;4.90;;;1.90;;
20870;SDS011;10595;51.218;3.452;2024-03-02T02:45:54;4.47;;;2.10;;
20870;SDS011;10595;51.218;3.452;2024-03-02T02:48:20;5.07;;;2.43;;
20870;SDS011;10595;51.218;3.452;2024-03-02T02:50:46;5.13;;;2.87;;
20870;SDS011;10595;51.218;3.452;2024-03-02T02:53:12;5.70;;;2.80;;
20870;SDS011;10595;51.218;3.452;2024-03-02T02:55:42;5.77;;;2.80;;
20870;SDS011;10595;51.218;3.452;2024-03-02T02:58:11;4.77;;;3.20;;
20870;SDS011;10595;51.218;3.452;2024-03-02T03:00:37;5.83;;;2.87;;
20870;SDS011;10595;51.218;3.452;2024-03-02T03:03:04;6.47;;;3.20;;
20870;SDS011;10595;51.218;3.452;2024-03-02T03:05:30;6.13;;;3.37;;
20870;SDS011;10595;51.218;3.452;2024-03-02T03:07:56;9.20;;;3.37;;
20870;SDS011;10595;51.218;3.452;2024-03-02T03:10:22;7.70;;;3.13;;
20870;SDS011;10595;51.218;3.452;2024-03-02T03:12:50;5.73;;;3.63;;
20870;SDS011;10595;51.218;3.452;2024-03-02T03:15:17;6.93;;;3.53;;
20870;SDS011;10595;51.218;3.452;2024-03-02T03:17:43;8.20;;;3.47;;
20870;SDS011;10595;51.218;3.452;2024-03-02T03:20:10;8.17;;;3.70;;
20870;SDS011;10595;51.218;3.452;2024-03-02T03:22:37;8.47;;;4.23;;
20870;SDS011;10595;51.218;3.452;2024-03-02T03:25:04;7.93;;;3.50;;
20870;SDS011;10595;51.218;3.452;2024-03-02T03:27:30;4.93;;;3.43;;
20870;SDS011;10595;51.218;3.452;2024-03-02T03:29:57;6.20;;;3.23;;
20870;SDS011;10595;51.218;3.452;2024-03-02T03:32:23;8.80;;;3.80;;
20870;SDS011;10595;51.218;3.452;2024-03-02T03:34:49;7.17;;;3.40;;
20870;SDS011;10595;51.218;3.452;2024-03-02T03:37:16;7.60;;;3.30;;
20870;SDS011;10595;51.218;3.452;2024-03-02T03:39:42;6.30;;;3.20;;
20870;SDS011;10595;51.218;3.452;2024-03-02T03:42:08;5.87;;;2.97;;
20870;SDS011;10595;51.218;3.452;2024-03-02T03:44:34;5.47;;;2.70;;
20870;SDS011;10595;51.218;3.452;2024-03-02T03:47:00;8.87;;;3.47;;
20870;SDS011;10595;51.218;3.452;2024-03-02T03:49:27;5.37;;;2.97;;
20870;SDS011;10595;51.218;3.452;2024-03-02T03:51:53;6.20;;;2.80;;
20870;SDS011;10595;51.218;3.452;2024-03-02T03:54:19;6.10;;;3.20;;
20870;SDS011;10595;51.218;3.452;2024-03-02T03:56:45;7.97;;;3.20;;
20870;SDS011;10595;51.218;3.452;2024-03-02T03:59:11;6.93;;;3.07;;
20870;SDS011;10595;51.218;3.452;2024-03-02T04:01:37;6.53;;;3.07;;
20870;SDS011;10595;51.218;3.452;2024-03-02T04:04:03;4.20;;;2.37;;
20870;SDS011;10595;51.218;3.452;2024-03-02T04:06:30;7.13;;;3.17;;
20870;SDS011;10595;51.218;3.452;2024-03-02T04:08:56;5.93;;;3.00;;
20870;SDS011;10595;51.218;3.452;2024-03-02T04:11:22;5.57;;;2.97;;
20870;SDS011;10595;51.218;3.452;2024-03-02T04:13:48;10.63;;;2.87;;
20870;SDS011;10595;51.218;3.452;2024-03-02T04:16:14;4.43;;;2.87;;
20870;SDS011;10595;51.218;3.452;2024-03-02T04:18:40;6.20;;;2.60;;
20870;SDS011;10595;51.218;3.452;2024-03-02T04:21:06;4.23;;;2.37;;
20870;SDS011;10595;51.218;3.452;2024-03-02T04:23:32;3.20;;;2.77;;
20870;SDS011;10595;51.218;3.452;2024-03-02T04:25:58;8.60;;;3.33;;
20870;SDS011;10595;51.218;3.452;2024-03-02T04:28:24;4.90;;;2.53;;
20870;SDS011;10595;51.218;3.452;2024-03-02T04:30:50;7.10;;;2.57;;
20870;SDS011;10595;51.218;3.452;2024-03-02T04:33:16;7.63;;;3.13;;
20870;SDS011;10595;51.218;3.452;2024-03-02T04:35:42;5.97;;;2.47;;
20870;SDS011;10595;51.218;3.452;2024-03-02T04:38:08;11.97;;;3.03;;
20870;SDS011;10595;51.218;3.452;2024-03-02T04:40:34;5.03;;;2.50;;
20870;SDS011;10595;51.218;3.452;2024-03-02T04:43:00;5.07;;;2.20;;
20870;SDS011;10595;51.218;3.452;2024-03-02T04:45:27;6.53;;;2.27;;
20870;SDS011;10595;51.218;3.452;2024-03-02T04:47:53;9.37;;;2.77;;
20870;SDS011;10595;51.218;3.452;2024-03-02T04:50:19;5.80;;;2.20;;
20870;SDS011;10595;51.218;3.452;2024-03-02T04:52:45;8.87;;;2.40;;
20870;SDS011;10595;51.218;3.452;2024-03-02T04:55:11;9.50;;;2.50;;
20870;SDS011;10595;51.218;3.452;2024-03-02T04:57:52;7.10;;;2.47;;
20870;SDS011;10595;51.218;3.452;2024-03-02T05:00:21;9.50;;;2.57;;
20870;SDS011;10595;51.218;3.452;2024-03-02T05:02:47;7.80;;;2.30;;
20870;SDS011;10595;51.218;3.452;2024-03-02T05:05:13;6.20;;;2.40;;
20870;SDS011;10595;51.218;3.452;2024-03-02T05:07:42;5.47;;;2.60;;
20870;SDS011;10595;51.218;3.452;2024-03-02T05:10:09;8.13;;;2.37;;
20870;SDS011;10595;51.218;3.452;2024-03-02T05:12:37;8.00;;;2.30;;
20870;SDS011;10595;51.218;3.452;2024-03-02T05:15:09;10.00;;;2.70;;
20870;SDS011;10595;51.218;3.452;2024-03-02T05:17:35;6.57;;;2.30;;
20870;SDS011;10595;51.218;3.452;2024-03-02T05:20:02;5.77;;;2.43;;
20870;SDS011;10595;51.218;3.452;2024-03-02T05:22:28;6.90;;;2.50;;
20870;SDS011;10595;51.218;3.452;2024-03-02T05:24:54;7.93;;;2.83;;
20870;SDS011;10595;51.218;3.452;2024-03-02T05:27:21;6.70;;;2.40;;
20870;SDS011;10595;51.218;3.452;2024-03-02T05:29:47;5.60;;;2.17;;
20870;SDS011;10595;51.218;3.452;2024-03-02T05:32:13;8.80;;;2.50;;
20870;SDS011;10595;51.218;3.452;2024-03-02T05:34:39;8.27;;;2.67;;
20870;SDS011;10595;51.218;3.452;2024-03-02T05:37:05;7.60;;;2.40;;
20870;SDS011;10595;51.218;3.452;2024-03-02T05:39:31;7.90;;;2.50;;
20870;SDS011;10595;51.218;3.452;2024-03-02T05:41:57;7.30;;;2.27;;
20870;SDS011;10595;51.218;3.452;2024-03-02T05:44:23;7.70;;;3.20;;
20870;SDS011;10595;51.218;3.452;2024-03-02T05:46:49;8.03;;;2.90;;
20870;SDS011;10595;51.218;3.452;2024-03-02T05:49:15;6.17;;;2.67;;
20870;SDS011;10595;51.218;3.452;2024-03-02T05:51:41;9.10;;;2.53;;
20870;SDS011;10595;51.218;3.452;2024-03-02T05:54:07;8.93;;;2.70;;
20870;SDS011;10595;51.218;3.452;2024-03-02T05:56:33;10.13;;;2.70;;
20870;SDS011;10595;51.218;3.452;2024-03-02T05:58:59;7.83;;;2.33;;
20870;SDS011;10595;51.218;3.452;2024-03-02T06:01:34;8.60;;;2.47;;
20870;SDS011;10595;51.218;3.452;2024-03-02T06:04:00;10.77;;;2.53;;
20870;SDS011;10595;51.218;3.452;2024-03-02T06:06:26;8.17;;;2.30;;
20870;SDS011;10595;51.218;3.452;2024-03-02T06:08:52;8.83;;;2.20;;
20870;SDS011;10595;51.218;3.452;2024-03-02T06:11:21;8.97;;;2.80;;
20870;SDS011;10595;51.218;3.452;2024-03-02T06:13:47;6.57;;;2.40;;
20870;SDS011;10595;51.218;3.452;2024-03-02T06:16:13;7.97;;;2.40;;
20870;SDS011;10595;51.218;3.452;2024-03-02T06:18:39;6.57;;;2.20;;
20870;SDS011;10595;51.218;3.452;2024-03-02T06:21:05;10.67;;;2.87;;
20870;SDS011;10595;51.218;3.452;2024-03-02T06:23:31;8.27;;;2.20;;
20870;SDS011;10595;51.218;3.452;2024-03-02T06:25:57;6.67;;;2.20;;
20870;SDS011;10595;51.218;3.452;2024-03-02T06:28:23;6.77;;;2.17;;
20870;SDS011;10595;51.218;3.452;2024-03-02T06:30:49;8.67;;;2.10;;
20870;SDS011;10595;51.218;3.452;2024-03-02T06:33:15;6.30;;;2.27;;
20870;SDS011;10595;51.218;3.452;2024-03-02T06:35:41;7.13;;;2.43;;
20870;SDS011;10595;51.218;3.452;2024-03-02T06:38:07;7.57;;;2.10;;
20870;SDS011;10595;51.218;3.452;2024-03-02T06:40:33;9.50;;;2.40;;
20870;SDS011;10595;51.218;3.452;2024-03-02T06:42:59;10.83;;;2.10;;
20870;SDS011;10595;51.218;3.452;2024-03-02T06:45:25;5.43;;;1.50;;
20870;SDS011;10595;51.218;3.452;2024-03-02T06:47:51;7.90;;;2.27;;
20870;SDS011;10595;51.218;3.452;2024-03-02T06:50:17;5.30;;;1.73;;
20870;SDS011;10595;51.218;3.452;2024-03-02T06:52:43;3.03;;;1.40;;
20870;SDS011;10595;51.218;3.452;2024-03-02T06:55:09;10.17;;;1.83;;
20870;SDS011;10595;51.218;3.452;2024-03-02T06:57:36;8.27;;;1.70;;
20870;SDS011;10595;51.218;3.452;2024-03-02T07:00:02;6.90;;;1.87;;
20870;SDS011;10595;51.218;3.452;2024-03-02T07:02:30;8.53;;;2.03;;
20870;SDS011;10595;51.218;3.452;2024-03-02T07:04:56;5.53;;;1.90;;
20870;SDS011;10595;51.218;3.452;2024-03-02T07:07:22;5.63;;;1.70;;
20870;SDS011;10595;51.218;3.452;2024-03-02T07:09:48;10.33;;;1.77;;
20870;SDS011;10595;51.218;3.452;2024-03-02T07:12:14;14.67;;;1.97;;
20870;SDS011;10595;51.218;3.452;2024-03-02T07:14:40;7.77;;;1.60;;
20870;SDS011;10595;51.218;3.452;2024-03-02T07:17:25;7.80;;;1.90;;
20870;SDS011;10595;51.218;3.452;2024-03-02T07:19:51;9.90;;;1.67;;
20870;SDS011;10595;51.218;3.452;2024-03-02T07:22:17;10.60;;;1.50;;
20870;SDS011;10595;51.218;3.452;2024-03-02T07:24:43;9.50;;;1.70;;
20870;SDS011;10595;51.218;3.452;2024-03-02T07:27:11;9.40;;;1.50;;
20870;SDS011;10595;51.218;3.452;2024-03-02T07:29:37;7.60;;;2.33;;
20870;SDS011;10595;51.218;3.452;2024-03-02T07:32:03;8.13;;;2.17;;
20870;SDS011;10595;51.218;3.452;2024-03-02T07:34:29;12.07;;;1.60;;
20870;SDS011;10595;51.218;3.452;2024-03-02T07:36:55;9.13;;;1.50;;
20870;SDS011;10595;51.218;3.452;2024-03-02T07:39:21;6.07;;;1.50;;
20870;SDS011;10595;51.218;3.452;2024-03-02T07:41:47;8.77;;;1.53;;
20870;SDS011;10595;51.218;3.452;2024-03-02T07:44:14;10.23;;;1.97;;
20870;SDS011;10595;51.218;3.452;2024-03-02T07:46:40;8.50;;;1.93;;
20870;SDS011;10595;51.218;3.452;2024-03-02T07:49:07;9.43;;;1.57;;
20870;SDS011;10595;51.218;3.452;2024-03-02T07:51:33;5.50;;;1.77;;
20870;SDS011;10595;51.218;3.452;2024-03-02T07:53:59;7.27;;;2.07;;
20870;SDS011;10595;51.218;3.452;2024-03-02T07:56:25;9.83;;;1.70;;
20870;SDS011;10595;51.218;3.452;2024-03-02T07:58:52;11.63;;;1.53;;
20870;SDS011;10595;51.218;3.452;2024-03-02T08:01:18;6.20;;;1.50;;
20870;SDS011;10595;51.218;3.452;2024-03-02T08:03:44;11.13;;;1.50;;
20870;SDS011;10595;51.218;3.452;2024-03-02T08:06:13;7.70;;;1.60;;
20870;SDS011;10595;51.218;3.452;2024-03-02T08:08:42;3.77;;;1.20;;
20870;SDS011;10595;51.218;3.452;2024-03-02T08:11:08;10.27;;;1.77;;
20870;SDS011;10595;51.218;3.452;2024-03-02T08:13:34;5.10;;;1.30;;
20870;SDS011;10595;51.218;3.452;2024-03-02T08:16:00;5.03;;;1.43;;
20870;SDS011;10595;51.218;3.452;2024-03-02T08:18:28;7.43;;;1.60;;
20870;SDS011;10595;51.218;3.452;2024-03-02T08:20:54;8.30;;;1.60;;
20870;SDS011;10595;51.218;3.452;2024-03-02T08:23:20;9.47;;;2.10;;
20870;SDS011;10595;51.218;3.452;2024-03-02T08:25:47;8.10;;;1.60;;
20870;SDS011;10595;51.218;3.452;2024-03-02T08:28:13;9.80;;;1.63;;
20870;SDS011;10595;51.218;3.452;2024-03-02T08:30:39;5.63;;;1.43;;
20870;SDS011;10595;51.218;3.452;2024-03-02T08:33:05;9.33;;;2.00;;
20870;SDS011;10595;51.218;3.452;2024-03-02T08:35:31;8.70;;;1.60;;
20870;SDS011;10595;51.218;3.452;2024-03-02T08:38:01;7.40;;;1.40;;
20870;SDS011;10595;51.218;3.452;2024-03-02T08:40:28;9.43;;;1.53;;
20870;SDS011;10595;51.218;3.452;2024-03-02T08:42:54;18.47;;;2.00;;
20870;SDS011;10595;51.218;3.452;2024-03-02T08:45:20;8.30;;;1.83;;
20870;SDS011;10595;51.218;3.452;2024-03-02T08:47:46;10.83;;;1.67;;
20870;SDS011;10595;51.218;3.452;2024-03-02T08:50:12;11.73;;;1.73;;
20870;SDS011;10595;51.218;3.452;2024-03-02T08:52:38;5.53;;;1.37;;
20870;SDS011;10595;51.218;3.452;2024-03-02T08:55:05;7.60;;;1.37;;
20870;SDS011;10595;51.218;3.452;2024-03-02T08:57:32;7.60;;;1.40;;
20870;SDS011;10595;51.218;3.452;2024-03-02T08:59:58;10.07;;;2.10;;
20870;SDS011;10595;51.218;3.452;2024-03-02T09:02:24;13.60;;;2.03;;
20870;SDS011;10595;51.218;3.452;2024-03-02T09:04:50;8.20;;;1.60;;
20870;SDS011;10595;51.218;3.452;2024-03-02T09:07:16;9.63;;;1.43;;
20870;SDS011;10595;51.218;3.452;2024-03-02T09:09:42;10.27;;;1.97;;
20870;SDS011;10595;51.218;3.452;2024-03-02T09:12:08;10.83;;;2.13;;
20870;SDS011;10595;51.218;3.452;2024-03-02T09:14:35;8.73;;;1.67;;
20870;SDS011;10595;51.218;3.452;2024-03-02T09:17:02;13.33;;;1.67;;
20870;SDS011;10595;51.218;3.452;2024-03-02T09:19:28;13.17;;;2.33;;
20870;SDS011;10595;51.218;3.452;2024-03-02T09:21:54;11.40;;;1.80;;
20870;SDS011;10595;51.218;3.452;2024-03-02T09:24:21;7.77;;;2.13;;
20870;SDS011;10595;51.218;3.452;2024-03-02T09:26:47;18.17;;;2.30;;
20870;SDS011;10595;51.218;3.452;2024-03-02T09:29:13;9.53;;;1.87;;
20870;SDS011;10595;51.218;3.452;2024-03-02T09:31:40;9.97;;;1.90;;
20870;SDS011;10595;51.218;3.452;2024-03-02T09:34:06;10.17;;;2.57;;
20870;SDS011;10595;51.218;3.452;2024-03-02T09:36:32;7.17;;;1.63;;
20870;SDS011;10595;51.218;3.452;2024-03-02T09:38:58;10.57;;;1.90;;
20870;SDS011;10595;51.218;3.452;2024-03-02T09:41:24;11.97;;;2.60;;
20870;SDS011;10595;51.218;3.452;2024-03-02T09:43:50;10.27;;;2.17;;
20870;SDS011;10595;51.218;3.452;2024-03-02T09:46:16;8.07;;;2.37;;
20870;SDS011;10595;51.218;3.452;2024-03-02T09:48:43;8.37;;;2.10;;
20870;SDS011;10595;51.218;3.452;2024-03-02T09:51:10;9.70;;;1.87;;
20870;SDS011;10595;51.218;3.452;2024-03-02T09:53:36;9.90;;;1.80;;
20870;SDS011;10595;51.218;3.452;2024-03-02T09:56:02;7.93;;;1.90;;
20870;SDS011;10595;51.218;3.452;2024-03-02T09:58:29;7.23;;;1.53;;
20870;SDS011;10595;51.218;3.452;2024-03-02T10:00:56;11.10;;;1.80;;
20870;SDS011;10595;51.218;3.452;2024-03-02T10:03:25;10.23;;;1.70;;
20870;SDS011;10595;51.218;3.452;2024-03-02T10:05:52;7.47;;;1.67;;
20870;SDS011;10595;51.218;3.452;2024-03-02T10:08:18;9.50;;;1.97;;
20870;SDS011;10595;51.218;3.452;2024-03-02T10:10:44;15.07;;;2.27;;
20870;SDS011;10595;51.218;3.452;2024-03-02T10:13:11;11.97;;;2.40;;
20870;SDS011;10595;51.218;3.452;2024-03-02T10:15:37;11.07;;;2.60;;
20870;SDS011;10595;51.218;3.452;2024-03-02T10:18:06;10.07;;;2.23;;
20870;SDS011;10595;51.218;3.452;2024-03-02T10:20:34;10.40;;;2.03;;
20870;SDS011;10595;51.218;3.452;2024-03-02T10:23:09;7.63;;;1.80;;
20870;SDS011;10595;51.218;3.452;2024-03-02T10:25:36;9.60;;;1.77;;
20870;SDS011;10595;51.218;3.452;2024-03-02T10:28:02;8.67;;;1.83;;
20870;SDS011;10595;51.218;3.452;2024-03-02T10:30:30;10.03;;;2.13;;
20870;SDS011;10595;51.218;3.452;2024-03-02T10:32:57;10.57;;;1.70;;
20870;SDS011;10595;51.218;3.452;2024-03-02T10:35:23;6.03;;;1.50;;
20870;SDS011;10595;51.218;3.452;2024-03-02T10:37:50;10.83;;;2.07;;
20870;SDS011;10595;51.218;3.452;2024-03-02T10:40:17;14.07;;;2.10;;
20870;SDS011;10595;51.218;3.452;2024-03-02T10:42:43;8.90;;;1.60;;
20870;SDS011;10595;51.218;3.452;2024-03-02T10:45:10;10.27;;;1.70;;
20870;SDS011;10595;51.218;3.452;2024-03-02T10:47:38;7.67;;;1.80;;
20870;SDS011;10595;51.218;3.452;2024-03-02T10:50:04;13.23;;;1.80;;
20870;SDS011;10595;51.218;3.452;2024-03-02T10:52:34;8.63;;;2.00;;
20870;SDS011;10595;51.218;3.452;2024-03-02T10:55:00;11.17;;;2.13;;
20870;SDS011;10595;51.218;3.452;2024-03-02T10:57:26;8.83;;;1.80;;
20870;SDS011;10595;51.218;3.452;2024-03-02T10:59:52;8.07;;;1.73;;
20870;SDS011;10595;51.218;3.452;2024-03-02T11:02:22;12.57;;;2.60;;
20870;SDS011;10595;51.218;3.452;2024-03-02T11:04:50;11.27;;;1.67;;
20870;SDS011;10595;51.218;3.452;2024-03-02T11:07:16;8.53;;;1.70;;
20870;SDS011;10595;51.218;3.452;2024-03-02T11:09:50;11.03;;;1.63;;
20870;SDS011;10595;51.218;3.452;2024-03-02T11:12:22;15.77;;;6.40;;
20870;SDS011;10595;51.218;3.452;2024-03-02T11:14:50;15.47;;;4.17;;
20870;SDS011;10595;51.218;3.452;2024-03-02T11:17:19;8.07;;;2.00;;
20870;SDS011;10595;51.218;3.452;2024-03-02T11:19:45;8.37;;;2.07;;
20870;SDS011;10595;51.218;3.452;2024-03-02T11:22:12;15.43;;;2.23;;
20870;SDS011;10595;51.218;3.452;2024-03-02T11:24:39;10.53;;;1.60;;
20870;SDS011;10595;51.218;3.452;2024-03-02T11:27:05;12.07;;;2.20;;
20870;SDS011;10595;51.218;3.452;2024-03-02T11:32:04;11.43;;;2.03;;
20870;SDS011;10595;51.218;3.452;2024-03-02T11:34:30;11.57;;;1.80;;
20870;SDS011;10595;51.218;3.452;2024-03-02T11:36:57;8.17;;;1.87;;
20870;SDS011;10595;51.218;3.452;2024-03-02T11:39:26;8.30;;;1.70;;
20870;SDS011;10595;51.218;3.452;2024-03-02T11:41:53;8.53;;;1.60;;
20870;SDS011;10595;51.218;3.452;2024-03-02T11:44:19;8.30;;;1.60;;
20870;SDS011;10595;51.218;3.452;2024-03-02T11:46:45;7.53;;;1.40;;
20870;SDS011;10595;51.218;3.452;2024-03-02T11:49:14;5.80;;;1.30;;
20870;SDS011;10595;51.218;3.452;2024-03-02T11:51:50;12.80;;;1.90;;
20870;SDS011;10595;51.218;3.452;2024-03-02T11:54:18;7.03;;;1.50;;
20870;SDS011;10595;51.218;3.452;2024-03-02T11:56:45;11.27;;;1.60;;
20870;SDS011;10595;51.218;3.452;2024-03-02T11:59:11;7.63;;;1.70;;
20870;SDS011;10595;51.218;3.452;2024-03-02T12:01:37;7.07;;;1.70;;
20870;SDS011;10595;51.218;3.452;2024-03-02T12:04:04;11.67;;;1.90;;
20870;SDS011;10595;51.218;3.452;2024-03-02T12:06:31;7.53;;;1.80;;
20870;SDS011;10595;51.218;3.452;2024-03-02T12:08:57;8.33;;;1.70;;
20870;SDS011;10595;51.218;3.452;2024-03-02T12:11:23;7.67;;;1.50;;
20870;SDS011;10595;51.218;3.452;2024-03-02T12:13:52;10.40;;;2.10;;
20870;SDS011;10595;51.218;3.452;2024-03-02T12:16:24;8.63;;;1.70;;
20870;SDS011;10595;51.218;3.452;2024-03-02T12:18:50;10.20;;;1.67;;
20870;SDS011;10595;51.218;3.452;2024-03-02T12:21:16;10.70;;;2.40;;
20870;SDS011;10595;51.218;3.452;2024-03-02T12:23:43;8.33;;;1.83;;
20870;SDS011;10595;51.218;3.452;2024-03-02T12:26:09;8.03;;;1.63;;
20870;SDS011;10595;51.218;3.452;2024-03-02T12:28:35;9.10;;;1.83;;
20870;SDS011;10595;51.218;3.452;2024-03-02T12:31:01;11.40;;;2.07;;
20870;SDS011;10595;51.218;3.452;2024-03-02T12:33:27;6.90;;;1.63;;
20870;SDS011;10595;51.218;3.452;2024-03-02T12:35:54;11.00;;;2.23;;
20870;SDS011;10595;51.218;3.452;2024-03-02T12:38:22;10.00;;;1.90;;
20870;SDS011;10595;51.218;3.452;2024-03-02T12:40:51;8.90;;;1.70;;
20870;SDS011;10595;51.218;3.452;2024-03-02T12:43:17;10.97;;;2.00;;
20870;SDS011;10595;51.218;3.452;2024-03-02T12:45:43;7.53;;;2.10;;
20870;SDS011;10595;51.218;3.452;2024-03-02T12:48:09;5.50;;;1.57;;
20870;SDS011;10595;51.218;3.452;2024-03-02T12:50:35;13.87;;;2.80;;
20870;SDS011;10595;51.218;3.452;2024-03-02T12:53:01;8.70;;;1.77;;
20870;SDS011;10595;51.218;3.452;2024-03-02T12:55:27;10.03;;;1.97;;
20870;SDS011;10595;51.218;3.452;2024-03-02T12:57:54;9.13;;;2.30;;
20870;SDS011;10595;51.218;3.452;2024-03-02T13:00:21;8.50;;;1.67;;
20870;SDS011;10595;51.218;3.452;2024-03-02T13:02:47;11.90;;;2.70;;
20870;SDS011;10595;51.218;3.452;2024-03-02T13:05:14;12.40;;;2.73;;
20870;SDS011;10595;51.218;3.452;2024-03-02T13:07:40;9.03;;;2.33;;
20870;SDS011;10595;51.218;3.452;2024-03-02T13:10:07;11.73;;;2.10;;
20870;SDS011;10595;51.218;3.452;2024-03-02T13:12:34;11.13;;;2.07;;
20870;SDS011;10595;51.218;3.452;2024-03-02T13:15:01;8.20;;;2.07;;
20870;SDS011;10595;51.218;3.452;2024-03-02T13:17:28;10.20;;;1.93;;
20870;SDS011;10595;51.218;3.452;2024-03-02T13:19:55;6.50;;;1.90;;
20870;SDS011;10595;51.218;3.452;2024-03-02T13:22:21;7.80;;;1.87;;
20870;SDS011;10595;51.218;3.452;2024-03-02T13:24:48;7.67;;;2.10;;
20870;SDS011;10595;51.218;3.452;2024-03-02T13:27:14;13.10;;;2.10;;
20870;SDS011;10595;51.218;3.452;2024-03-02T13:29:41;9.17;;;2.37;;
20870;SDS011;10595;51.218;3.452;2024-03-02T13:32:07;6.63;;;2.33;;
20870;SDS011;10595;51.218;3.452;2024-03-02T13:34:35;10.33;;;2.00;;
20870;SDS011;10595;51.218;3.452;2024-03-02T13:37:02;6.73;;;2.30;;
20870;SDS011;10595;51.218;3.452;2024-03-02T13:39:29;10.50;;;2.53;;
20870;SDS011;10595;51.218;3.452;2024-03-02T13:41:57;11.07;;;2.20;;
20870;SDS011;10595;51.218;3.452;2024-03-02T13:44:29;11.33;;;2.50;;
20870;SDS011;10595;51.218;3.452;2024-03-02T13:46:55;8.03;;;2.40;;
20870;SDS011;10595;51.218;3.452;2024-03-02T13:49:21;8.60;;;1.43;;
20870;SDS011;10595;51.218;3.452;2024-03-02T13:51:48;6.83;;;1.60;;
20870;SDS011;10595;51.218;3.452;2024-03-02T13:54:14;5.83;;;1.83;;
20870;SDS011;10595;51.218;3.452;2024-03-02T13:56:40;6.33;;;2.63;;
20870;SDS011;10595;51.218;3.452;2024-03-02T13:59:06;6.80;;;2.80;;
20870;SDS011;10595;51.218;3.452;2024-03-02T14:01:32;5.87;;;3.23;;
20870;SDS011;10595;51.218;3.452;2024-03-02T14:03:59;5.43;;;1.90;;
20870;SDS011;10595;51.218;3.452;2024-03-02T14:06:25;3.90;;;1.50;;
20870;SDS011;10595;51.218;3.452;2024-03-02T14:08:52;4.73;;;1.60;;
20870;SDS011;10595;51.218;3.452;2024-03-02T14:11:18;5.67;;;1.30;;
20870;SDS011;10595;51.218;3.452;2024-03-02T14:13:44;5.63;;;1.23;;
20870;SDS011;10595;51.218;3.452;2024-03-02T14:16:14;7.77;;;2.30;;
20870;SDS011;10595;51.218;3.452;2024-03-02T14:18:41;5.73;;;1.97;;
20870;SDS011;10595;51.218;3.452;2024-03-02T14:21:07;5.13;;;1.73;;
20870;SDS011;10595;51.218;3.452;2024-03-02T14:23:33;5.87;;;1.50;;
20870;SDS011;10595;51.218;3.452;2024-03-02T14:25:59;3.40;;;1.30;;
20870;SDS011;10595;51.218;3.452;2024-03-02T14:28:25;4.07;;;1.70;;
20870;SDS011;10595;51.218;3.452;2024-03-02T14:30:51;9.77;;;1.90;;
20870;SDS011;10595;51.218;3.452;2024-03-02T14:33:18;5.90;;;1.80;;
20870;SDS011;10595;51.218;3.452;2024-03-02T14:35:44;5.40;;;2.03;;
20870;SDS011;10595;51.218;3.452;2024-03-02T14:38:13;8.70;;;1.70;;
20870;SDS011;10595;51.218;3.452;2024-03-02T14:40:40;6.33;;;1.77;;
20870;SDS011;10595;51.218;3.452;2024-03-02T14:43:06;7.53;;;1.83;;
20870;SDS011;10595;51.218;3.452;2024-03-02T14:45:32;7.07;;;2.30;;
20870;SDS011;10595;51.218;3.452;2024-03-02T14:47:58;4.47;;;1.63;;